Time;durP1;ratioP1;P1;durP2;ratioP2;P2;SDS_P1;SDS_P2;PMS_P1;PMS_P2;Temp;Humidity;BMP_temperature;BMP_pressure;BME280_temperature;BME280_humidity;BME280_pressure;Samples;Min_cycle;Max_cycle;Signal;HPM_P1;HPM_P2
2022/07/28 00:00:47;;;;;;;4.33;1.73;;;;;;;17.03;97.54;99242.72;5091303;28;20192;-78
2022/07/28 00:03:15;;;;;;;5.67;1.90;;;;;;;17.12;96.93;99244.56;5095741;28;20199;-78
2022/07/28 00:05:43;;;;;;;3.47;1.47;;;;;;;17.05;96.95;99238.06;5097254;27;20203;-78
2022/07/28 00:08:12;;;;;;;2.40;1.50;;;;;;;16.81;98.70;99248.28;5098417;27;20230;-78
2022/07/28 00:10:40;;;;;;;3.90;1.30;;;;;;;16.90;99.26;99239.44;5096108;28;20188;-78
2022/07/28 00:13:08;;;;;;;4.27;1.50;;;;;;;16.67;99.87;99237.91;5091916;28;20195;-78
2022/07/28 00:15:36;;;;;;;5.43;1.60;;;;;;;16.72;100.00;99241.06;5090506;28;20203;-78
2022/07/28 00:18:06;;;;;;;6.00;1.63;;;;;;;16.48;100.00;99238.69;5095422;28;20218;-78
2022/07/28 00:20:35;;;;;;;7.00;1.50;;;;;;;16.49;100.00;99235.88;5092836;28;20195;-78
2022/07/28 00:23:03;;;;;;;2.97;1.50;;;;;;;16.38;100.00;99233.28;5093302;28;20192;-78
2022/07/28 00:25:32;;;;;;;4.63;1.27;;;;;;;16.45;100.00;99231.78;5097411;27;20187;-78
2022/07/28 00:28:00;;;;;;;2.60;1.23;;;;;;;16.51;100.00;99228.56;5095063;28;20207;-78
2022/07/28 00:30:29;;;;;;;5.07;1.20;;;;;;;16.60;100.00;99224.25;5094486;28;20200;-78
2022/07/28 00:32:57;;;;;;;5.50;1.50;;;;;;;16.50;100.00;99234.03;5091267;28;20198;-78
2022/07/28 00:35:27;;;;;;;4.63;1.50;;;;;;;16.35;100.00;99228.22;5091953;28;20238;-78
2022/07/28 00:37:58;;;;;;;5.50;2.33;;;;;;;16.19;100.00;99234.03;5095357;28;20233;-78
2022/07/28 00:41:09;;;;;;;8.53;1.80;;;;;;;16.33;100.00;99229.34;5091651;28;20196;-78
2022/07/28 00:43:15;;;;;;;4.13;1.20;;;;;;;16.40;100.00;99234.00;5092577;28;20218;-78
2022/07/28 00:45:43;;;;;;;2.40;1.30;;;;;;;16.36;100.00;99223.72;5094916;28;20192;-78
2022/07/28 00:48:12;;;;;;;3.13;1.57;;;;;;;16.51;100.00;99235.75;5086013;28;20669;-78
2022/07/28 00:50:43;;;;;;;5.67;1.87;;;;;;;16.22;100.00;99223.09;5093670;28;20206;-78
2022/07/28 00:53:11;;;;;;;4.40;1.80;;;;;;;16.27;100.00;99226.19;5095043;28;20200;-78
2022/07/28 00:55:40;;;;;;;5.37;1.50;;;;;;;16.15;100.00;99219.25;5092404;28;20305;-78
2022/07/28 00:58:29;;;;;;;3.67;1.50;;;;;;;16.24;100.00;99215.78;5095080;28;20215;-78
2022/07/28 01:00:58;;;;;;;6.30;2.70;;;;;;;16.26;100.00;99220.97;5089101;28;20213;-78
2022/07/28 01:03:28;;;;;;;4.57;1.90;;;;;;;16.21;100.00;99220.53;5094894;28;20192;-78
2022/07/28 01:06:06;;;;;;;5.80;3.13;;;;;;;16.15;100.00;99213.06;5093791;28;20195;-78
2022/07/28 01:08:45;;;;;;;4.30;1.40;;;;;;;16.25;100.00;99209.44;5091545;28;20195;-78
2022/07/28 01:11:22;;;;;;;4.37;1.30;;;;;;;16.23;100.00;99203.41;5091187;28;20207;-78
2022/07/28 01:14:02;;;;;;;3.20;1.50;;;;;;;16.38;100.00;99211.88;5094287;28;20215;-79
2022/07/28 01:16:30;;;;;;;5.23;1.40;;;;;;;16.29;100.00;99216.22;5094811;28;20274;-78
2022/07/28 01:19:09;;;;;;;3.93;1.37;;;;;;;16.24;100.00;99212.25;5094554;28;20229;-78
2022/07/28 01:21:41;;;;;;;4.60;1.10;;;;;;;16.40;100.00;99209.91;5095489;27;20195;-78
2022/07/28 01:24:19;;;;;;;4.27;1.40;;;;;;;16.21;100.00;99215.19;5091925;28;20280;-78
2022/07/28 01:26:58;;;;;;;3.87;1.10;;;;;;;16.16;100.00;99204.06;5094473;28;20188;-78
2022/07/28 01:29:45;;;;;;;5.53;1.50;;;;;;;15.96;100.00;99198.59;5094433;28;20195;-78
2022/07/28 01:32:19;;;;;;;5.00;1.50;;;;;;;16.00;100.00;99201.84;5093106;28;20210;-78
2022/07/28 01:34:52;;;;;;;3.57;1.30;;;;;;;16.01;100.00;99199.03;5093046;28;20202;-78
2022/07/28 01:37:29;;;;;;;5.90;1.20;;;;;;;15.93;100.00;99203.38;5094034;28;20279;-78
2022/07/28 01:40:03;;;;;;;3.53;1.30;;;;;;;15.83;100.00;99199.78;5094402;28;20191;-78
2022/07/28 01:42:35;;;;;;;3.13;1.30;;;;;;;15.47;100.00;99199.19;5086622;28;20200;-79
2022/07/28 01:45:04;;;;;;;2.40;1.23;;;;;;;15.60;100.00;99197.22;5094135;28;20199;-78
2022/07/28 01:47:35;;;;;;;3.20;1.30;;;;;;;15.56;100.00;99200.25;5094345;28;20196;-78
2022/07/28 01:50:08;;;;;;;3.27;1.50;;;;;;;15.36;100.00;99188.56;5092640;28;20203;-78
2022/07/28 01:52:38;;;;;;;5.37;1.83;;;;;;;15.27;100.00;99194.66;5092505;28;20239;-78
2022/07/28 01:55:08;;;;;;;5.00;1.73;;;;;;;15.24;100.00;99186.91;5086385;28;20204;-78
2022/07/28 01:57:37;;;;;;;6.80;1.77;;;;;;;15.38;100.00;99186.63;5088742;28;20227;-78
2022/07/28 02:00:11;;;;;;;6.60;1.67;;;;;;;15.27;100.00;99184.84;5091400;28;20207;-78
2022/07/28 02:02:44;;;;;;;3.00;1.47;;;;;;;15.10;100.00;99182.72;5091525;28;20192;-79
2022/07/28 02:05:15;;;;;;;4.87;1.60;;;;;;;15.26;100.00;99183.16;5088517;28;20191;-78
2022/07/28 02:07:53;;;;;;;5.23;1.50;;;;;;;15.29;100.00;99187.38;5097889;28;20216;-78
2022/07/28 02:10:25;;;;;;;5.67;1.70;;;;;;;15.12;100.00;99186.94;5115651;27;20199;-78
2022/07/28 02:12:55;;;;;;;6.47;1.57;;;;;;;15.23;100.00;99188.72;5113199;28;20243;-78
2022/07/28 02:15:25;;;;;;;4.93;1.50;;;;;;;15.08;100.00;99184.66;5112876;27;20198;-78
2022/07/28 02:17:57;;;;;;;4.77;1.73;;;;;;;15.13;100.00;99185.13;5111913;28;20282;-78
2022/07/28 02:20:26;;;;;;;4.90;1.70;;;;;;;15.16;100.00;99182.22;5110130;28;20205;-78
2022/07/28 02:22:57;;;;;;;7.80;1.80;;;;;;;15.12;100.00;99175.44;5071119;28;20200;-78
2022/07/28 02:25:29;;;;;;;7.10;1.50;;;;;;;15.21;100.00;99177.34;5070179;28;20199;-78
2022/07/28 02:28:01;;;;;;;4.73;1.80;;;;;;;15.07;100.00;99183.81;5065964;28;20226;-78
2022/07/28 02:30:35;;;;;;;5.07;1.47;;;;;;;15.03;100.00;99173.50;5450317;22;20417;-78
2022/07/28 02:33:11;;;;;;;2.50;1.37;;;;;;;15.00;100.00;99173.78;5022274;28;20253;-79
2022/07/28 02:35:50;;;;;;;6.87;2.00;;;;;;;14.87;100.00;99169.44;5033032;28;20190;-78
2022/07/28 02:38:30;;;;;;;3.27;1.50;;;;;;;14.81;100.00;99171.75;5030192;28;20260;-78
2022/07/28 02:41:05;;;;;;;2.40;1.20;;;;;;;14.60;100.00;99169.00;5029748;28;20701;-78
2022/07/28 02:43:39;;;;;;;4.97;1.70;;;;;;;14.72;100.00;99157.34;5032935;28;20341;-78
2022/07/28 02:46:22;;;;;;;6.27;1.50;;;;;;;14.64;100.00;99166.94;5030117;28;20229;-78
2022/07/28 02:48:56;;;;;;;5.53;1.60;;;;;;;14.64;100.00;99158.94;5032299;28;20204;-79
2022/07/28 02:51:28;;;;;;;5.97;1.50;;;;;;;14.65;100.00;99150.81;5029974;28;20224;-78
2022/07/28 02:53:58;;;;;;;4.87;1.53;;;;;;;14.73;100.00;99156.38;5026047;28;20198;-79
2022/07/28 02:56:31;;;;;;;3.90;1.23;;;;;;;14.66;100.00;99152.50;5032584;28;20189;-78
2022/07/28 02:59:01;;;;;;;5.30;1.40;;;;;;;14.74;100.00;99154.56;5032387;28;20228;-79
2022/07/28 03:01:30;;;;;;;4.10;1.40;;;;;;;14.79;100.00;99163.88;5012509;28;20217;-79
2022/07/28 03:04:01;;;;;;;6.03;1.73;;;;;;;14.63;100.00;99154.56;5029630;28;20244;-79
2022/07/28 03:06:31;;;;;;;2.33;1.17;;;;;;;14.79;100.00;99155.88;5029850;28;20202;-78
2022/07/28 03:09:01;;;;;;;5.17;1.40;;;;;;;14.64;100.00;99150.94;5031832;28;20225;-79
2022/07/28 03:11:34;;;;;;;4.13;1.90;;;;;;;14.62;100.00;99148.41;5026985;28;20232;-78
2022/07/28 03:14:03;;;;;;;4.67;1.53;;;;;;;14.84;100.00;99156.34;5031969;28;20683;-78
2022/07/28 03:16:35;;;;;;;3.60;1.43;;;;;;;14.75;100.00;99165.09;5030806;28;20194;-79
2022/07/28 03:19:06;;;;;;;3.37;1.63;;;;;;;14.78;100.00;99159.53;5021146;28;20225;-78
2022/07/28 03:21:36;;;;;;;7.97;1.50;;;;;;;14.69;100.00;99152.28;5026913;28;20201;-78
2022/07/28 03:24:05;;;;;;;3.43;1.60;;;;;;;14.86;100.00;99157.09;5032044;28;20190;-78
2022/07/28 03:26:41;;;;;;;5.30;1.60;;;;;;;14.78;100.00;99153.34;5029016;28;20194;-78
2022/07/28 03:29:11;;;;;;;4.53;1.70;;;;;;;14.62;100.00;99153.72;5031951;28;20306;-78
2022/07/28 03:31:43;;;;;;;3.07;1.27;;;;;;;14.66;100.00;99155.16;5029419;28;20269;-78
2022/07/28 03:34:13;;;;;;;4.47;1.50;;;;;;;14.83;100.00;99156.47;5026403;28;20220;-78
2022/07/28 03:36:48;;;;;;;4.17;1.63;;;;;;;14.82;100.00;99162.78;5032833;28;20198;-78
2022/07/28 03:39:18;;;;;;;4.27;1.70;;;;;;;14.78;100.00;99150.69;5029391;28;20260;-78
2022/07/28 03:41:47;;;;;;;2.77;1.47;;;;;;;14.80;100.00;99152.25;5028716;28;20213;-78
2022/07/28 03:44:16;;;;;;;6.17;1.50;;;;;;;15.03;100.00;99157.50;5031166;28;20197;-78
2022/07/28 03:46:56;;;;;;;5.07;1.77;;;;;;;14.95;100.00;99159.94;5028649;28;20216;-78
2022/07/28 03:49:25;;;;;;;4.30;1.60;;;;;;;15.02;100.00;99156.66;5025512;28;20365;-78
2022/07/28 03:51:54;;;;;;;2.80;1.50;;;;;;;15.22;100.00;99157.69;5032272;28;20209;-78
2022/07/28 03:54:22;;;;;;;2.90;1.80;;;;;;;14.96;100.00;99153.63;5026849;28;20206;-78
2022/07/28 03:56:50;;;;;;;8.10;1.83;;;;;;;15.00;100.00;99155.09;5032446;28;20198;-78
2022/07/28 03:59:19;;;;;;;5.47;1.60;;;;;;;14.96;100.00;99157.19;5030906;28;20218;-79
2022/07/28 04:01:47;;;;;;;6.23;2.40;;;;;;;14.99;100.00;99161.41;5033319;28;20202;-78
2022/07/28 04:04:15;;;;;;;6.23;3.17;;;;;;;14.89;100.00;99150.66;5022893;28;20214;-78
2022/07/28 04:06:45;;;;;;;6.23;2.50;;;;;;;14.99;100.00;99151.59;5031290;28;20260;-78
2022/07/28 04:09:14;;;;;;;5.30;1.50;;;;;;;14.96;100.00;99158.97;5023364;28;20244;-78
2022/07/28 04:11:42;;;;;;;4.37;1.90;;;;;;;14.89;100.00;99153.31;5032349;28;20222;-78
2022/07/28 04:14:11;;;;;;;4.10;1.60;;;;;;;14.89;100.00;99145.31;5032515;28;20316;-79
2022/07/28 04:16:44;;;;;;;6.67;1.73;;;;;;;14.95;100.00;99159.94;5033431;28;20229;-78
2022/07/28 04:19:12;;;;;;;4.90;2.20;;;;;;;14.91;100.00;99158.53;5026101;28;20252;-78
2022/07/28 04:21:41;;;;;;;4.63;1.80;;;;;;;14.94;100.00;99161.78;5030279;28;20654;-78
2022/07/28 04:24:11;;;;;;;3.73;1.60;;;;;;;14.72;100.00;99161.84;5030921;28;20277;-78
2022/07/28 04:26:40;;;;;;;8.13;4.17;;;;;;;14.62;100.00;99155.56;5034990;28;20197;-78
2022/07/28 04:29:11;;;;;;;4.23;1.73;;;;;;;14.68;100.00;99157.75;5025613;28;20210;-78
2022/07/28 04:31:40;;;;;;;5.87;1.60;;;;;;;14.62;100.00;99155.56;5031680;28;20230;-78
2022/07/28 04:34:08;;;;;;;5.40;1.50;;;;;;;14.72;100.00;99153.84;5024257;28;20194;-78
2022/07/28 04:36:40;;;;;;;3.70;2.00;;;;;;;14.82;100.00;99157.44;5033773;28;20280;-78
2022/07/28 04:39:11;;;;;;;6.73;1.50;;;;;;;14.78;100.00;99158.69;5031529;28;20267;-78
2022/07/28 04:41:40;;;;;;;4.60;1.80;;;;;;;14.94;100.00;99160.94;5030133;28;20202;-78
2022/07/28 04:44:10;;;;;;;4.17;1.60;;;;;;;14.77;100.00;99155.16;5034095;28;20193;-78
2022/07/28 04:46:41;;;;;;;5.83;1.57;;;;;;;14.91;100.00;99154.03;5031290;28;20228;-79
2022/07/28 04:49:09;;;;;;;3.13;1.53;;;;;;;14.75;100.00;99157.09;5027225;28;20268;-78
2022/07/28 04:51:37;;;;;;;3.87;1.50;;;;;;;14.95;100.00;99163.47;5025636;28;20350;-78
2022/07/28 04:54:05;;;;;;;6.57;2.17;;;;;;;14.99;100.00;99164.91;5032613;28;20350;-78
2022/07/28 04:56:35;;;;;;;5.47;1.50;;;;;;;15.02;100.00;99172.66;5034358;28;20221;-78
2022/07/28 04:59:05;;;;;;;5.60;2.40;;;;;;;15.03;100.00;99162.84;5031233;28;20196;-78
2022/07/28 05:01:34;;;;;;;6.47;1.70;;;;;;;14.79;100.00;99171.88;5026569;28;20202;-78
2022/07/28 05:04:03;;;;;;;4.63;1.80;;;;;;;14.80;100.00;99160.25;5027947;28;20190;-78
2022/07/28 05:06:31;;;;;;;4.90;1.90;;;;;;;15.08;100.00;99166.00;5033933;28;20240;-78
2022/07/28 05:08:59;;;;;;;5.13;1.57;;;;;;;15.01;100.00;99167.47;5029263;28;20206;-77
2022/07/28 05:11:29;;;;;;;6.23;2.40;;;;;;;15.03;100.00;99162.84;5027158;28;20239;-78
2022/07/28 05:13:59;;;;;;;6.27;2.40;;;;;;;15.20;100.00;99164.97;5033697;28;20225;-79
2022/07/28 05:16:27;;;;;;;16.80;8.77;;;;;;;15.20;100.00;99164.13;5026824;28;20305;-79
2022/07/28 05:18:56;;;;;;;4.17;2.07;;;;;;;15.26;100.00;99164.47;5032214;28;20221;-78
2022/07/28 05:21:24;;;;;;;6.27;1.90;;;;;;;15.45;100.00;99166.44;5030057;28;20225;-78
2022/07/28 05:23:53;;;;;;;6.30;2.50;;;;;;;15.34;100.00;99153.97;5034572;28;20205;-78
2022/07/28 05:26:21;;;;;;;3.53;1.80;;;;;;;15.37;100.00;99160.91;5024526;28;20202;-78
2022/07/28 05:28:49;;;;;;;6.53;2.57;;;;;;;15.34;100.00;99161.97;5034345;28;20202;-79
2022/07/28 05:31:19;;;;;;;7.97;2.90;;;;;;;15.22;100.00;99165.69;5026083;28;20225;-78
2022/07/28 05:33:48;;;;;;;4.57;1.70;;;;;;;15.41;100.00;99163.16;5031369;28;20293;-78
2022/07/28 05:36:19;;;;;;;7.10;1.90;;;;;;;15.56;100.00;99170.88;5034349;28;20285;-78
2022/07/28 05:38:48;;;;;;;4.47;1.60;;;;;;;15.62;100.00;99160.53;5029087;28;20232;-79
2022/07/28 05:41:16;;;;;;;8.07;1.77;;;;;;;15.43;100.00;99168.38;5024770;28;20222;-78
2022/07/28 05:43:44;;;;;;;6.30;1.83;;;;;;;15.66;100.00;99167.34;5030585;28;20249;-79
2022/07/28 05:46:14;;;;;;;4.90;1.60;;;;;;;15.70;100.00;99171.44;5030130;28;20190;-78
2022/07/28 05:48:46;;;;;;;5.60;1.90;;;;;;;15.73;100.00;99175.69;5031058;28;20286;-78
2022/07/28 05:51:15;;;;;;;3.43;1.40;;;;;;;15.90;100.00;99174.22;5033968;28;20201;-78
2022/07/28 05:53:43;;;;;;;6.27;1.50;;;;;;;16.01;100.00;99174.97;5028540;28;20197;-78
2022/07/28 05:56:11;;;;;;;3.67;1.47;;;;;;;15.97;100.00;99173.56;5029630;28;20206;-79
2022/07/28 05:58:39;;;;;;;6.43;1.60;;;;;;;16.13;100.00;99164.25;5031010;28;20201;-78
2022/07/28 06:01:08;;;;;;;3.13;1.43;;;;;;;16.18;100.00;99165.50;5026047;28;20283;-79
2022/07/28 06:03:36;;;;;;;4.23;1.60;;;;;;;16.21;100.00;99161.72;5033916;28;20202;-79
2022/07/28 06:06:11;;;;;;;8.20;1.80;;;;;;;16.15;100.00;99168.47;5027728;28;20205;-79
2022/07/28 06:08:45;;;;;;;6.90;1.90;;;;;;;16.39;100.00;99161.94;5033702;28;20189;-78
2022/07/28 06:11:15;;;;;;;5.27;2.03;;;;;;;16.07;100.00;99160.25;5028204;28;20204;-78
2022/07/28 06:13:50;;;;;;;5.50;1.80;;;;;;;16.34;100.00;99159.69;5033645;28;20707;-78
2022/07/28 06:16:21;;;;;;;5.40;1.60;;;;;;;16.47;100.00;99156.78;5024992;28;20243;-79
2022/07/28 06:18:50;;;;;;;5.70;1.67;;;;;;;16.34;100.00;99161.50;5027273;28;20268;-79
2022/07/28 06:21:23;;;;;;;4.00;1.40;;;;;;;16.50;100.00;99162.72;5033500;28;20304;-79
2022/07/28 06:23:51;;;;;;;8.57;1.63;;;;;;;16.35;100.00;99158.69;5033184;28;20221;-78
2022/07/28 06:26:20;;;;;;;7.67;2.40;;;;;;;16.58;100.00;99160.19;5030495;28;20205;-78
2022/07/28 06:28:50;;;;;;;6.10;1.77;;;;;;;16.72;100.00;99156.31;5025183;28;20651;-79
2022/07/28 06:31:19;;;;;;;4.33;1.40;;;;;;;16.79;100.00;99159.28;5027292;28;20226;-78
2022/07/28 06:33:47;;;;;;;2.93;1.60;;;;;;;16.94;100.00;99160.59;5029681;28;20213;-78
2022/07/28 06:36:15;;;;;;;4.47;1.60;;;;;;;17.04;100.00;99153.41;5025893;28;20198;-79
2022/07/28 06:38:45;;;;;;;5.23;1.33;;;;;;;17.21;100.00;99151.88;5026606;28;20208;-79
2022/07/28 06:41:14;;;;;;;7.13;1.47;;;;;;;17.05;100.00;99157.78;5033134;28;20308;-78
2022/07/28 06:43:43;;;;;;;5.10;1.33;;;;;;;17.16;100.00;99152.28;5030227;28;20190;-78
2022/07/28 06:46:17;;;;;;;2.50;1.33;;;;;;;17.27;100.00;99164.69;5028923;28;20640;-78
2022/07/28 06:48:46;;;;;;;15.10;2.23;;;;;;;17.38;100.00;99148.50;5026115;28;20429;-78
2022/07/28 06:51:17;;;;;;;6.77;2.30;;;;;;;17.50;100.00;99146.53;5032866;28;20189;-79
2022/07/28 06:53:48;;;;;;;4.33;1.50;;;;;;;17.54;100.00;99149.75;5030126;28;20197;-78
2022/07/28 06:56:18;;;;;;;6.80;1.80;;;;;;;17.66;100.00;99145.91;5021223;28;20205;-78
2022/07/28 06:58:48;;;;;;;6.03;1.80;;;;;;;17.83;100.00;99150.56;5026650;28;20277;-78
2022/07/28 07:01:17;;;;;;;7.23;1.50;;;;;;;17.92;100.00;99141.69;5028140;28;20271;-78
2022/07/28 07:03:45;;;;;;;5.37;1.67;;;;;;;18.08;100.00;99150.94;5024843;28;20252;-78
2022/07/28 07:06:14;;;;;;;4.93;1.40;;;;;;;18.08;100.00;99145.59;5025557;28;20197;-79
2022/07/28 07:08:42;;;;;;;4.70;1.80;;;;;;;18.19;99.35;99145.41;5031562;28;20197;-79
2022/07/28 07:11:12;;;;;;;4.67;1.57;;;;;;;18.20;99.67;99147.94;5031922;28;20197;-78
2022/07/28 07:13:41;;;;;;;5.17;1.70;;;;;;;18.30;98.86;99154.09;5026720;28;20198;-78
2022/07/28 07:16:10;;;;;;;5.00;1.30;;;;;;;18.48;96.93;99148.81;5026198;28;20222;-79
2022/07/28 07:18:38;;;;;;;3.00;1.27;;;;;;;18.48;95.99;99156.84;5024933;28;20221;-78
2022/07/28 07:21:07;;;;;;;4.50;1.37;;;;;;;18.50;95.34;99154.03;5028896;28;20224;-79
2022/07/28 07:23:35;;;;;;;4.67;1.40;;;;;;;18.77;94.26;99151.38;5027525;28;20190;-78
2022/07/28 07:26:04;;;;;;;7.17;1.40;;;;;;;18.92;93.67;99145.50;5026182;28;20209;-79
2022/07/28 07:28:34;;;;;;;4.20;1.80;;;;;;;19.04;92.17;99144.28;5028923;28;20213;-78
2022/07/28 07:31:02;;;;;;;6.33;1.67;;;;;;;19.06;92.10;99139.59;5030565;28;20304;-79
2022/07/28 07:33:31;;;;;;;4.77;1.97;;;;;;;19.16;90.63;99135.84;5031711;28;20197;-79
2022/07/28 07:35:59;;;;;;;3.10;1.40;;;;;;;19.32;90.12;99131.63;5028989;28;20209;-79
2022/07/28 07:38:27;;;;;;;2.73;1.63;;;;;;;19.46;89.54;99133.75;5030950;28;20202;-78
2022/07/28 07:40:56;;;;;;;4.10;1.70;;;;;;;19.50;89.34;99124.38;5032404;28;20240;-79
2022/07/28 07:43:24;;;;;;;4.40;1.60;;;;;;;19.45;90.45;99130.22;5030295;28;20212;-78
2022/07/28 07:45:54;;;;;;;5.10;1.17;;;;;;;19.44;90.83;99130.38;5031589;28;20236;-78
2022/07/28 07:48:23;;;;;;;4.93;1.50;;;;;;;19.60;88.80;99127.03;5031517;28;20707;-78
2022/07/28 07:50:53;;;;;;;5.53;1.60;;;;;;;19.67;88.40;99126.22;5031449;28;20197;-79
2022/07/28 07:53:23;;;;;;;4.67;1.40;;;;;;;19.68;88.79;99125.22;5031453;28;20205;-79
2022/07/28 07:55:52;;;;;;;5.03;1.50;;;;;;;19.82;87.06;99139.94;5029495;28;20273;-79
2022/07/28 07:58:20;;;;;;;8.67;1.87;;;;;;;19.98;86.97;99132.00;5016750;28;20226;-78
2022/07/28 08:00:48;;;;;;;6.07;1.27;;;;;;;20.26;83.58;99121.84;5034079;28;20225;-78
2022/07/28 08:03:18;;;;;;;3.30;1.37;;;;;;;19.99;83.53;99128.28;5034711;28;20208;-78
2022/07/28 08:05:50;;;;;;;4.13;1.50;;;;;;;20.20;83.26;99127.06;5031821;28;20276;-78
2022/07/28 08:08:18;;;;;;;3.87;1.30;;;;;;;20.44;80.64;99129.03;5031830;28;20194;-79
2022/07/28 08:10:49;;;;;;;8.17;1.93;;;;;;;20.65;78.03;99128.59;5030213;28;20198;-78
2022/07/28 08:13:19;;;;;;;5.60;1.60;;;;;;;20.71;78.59;99133.34;5029299;28;20201;-77
2022/07/28 08:15:47;;;;;;;3.60;1.73;;;;;;;20.80;77.42;99133.22;5032880;28;20193;-78
2022/07/28 08:18:19;;;;;;;9.97;5.03;;;;;;;20.77;76.84;99133.56;5034063;28;20205;-78
2022/07/28 08:20:48;;;;;;;6.30;2.00;;;;;;;20.83;76.07;99126.66;5034553;28;20232;-77
2022/07/28 08:23:17;;;;;;;6.53;1.43;;;;;;;21.12;75.30;99127.03;5031500;28;20190;-78
2022/07/28 08:25:52;;;;;;;3.60;1.42;;;;;;;21.19;72.85;99129.91;5029016;28;20232;-78
2022/07/28 08:28:21;;;;;;;7.60;2.60;;;;;;;21.34;73.69;99127.47;5031684;28;20198;-77
2022/07/28 08:30:50;;;;;;;5.07;1.52;;;;;;;21.74;70.32;99117.66;5029875;28;20218;-78
2022/07/28 08:33:22;;;;;;;3.55;1.40;;;;;;;21.62;70.64;99117.19;5034137;28;20201;-77
2022/07/28 08:35:50;;;;;;;3.47;1.42;;;;;;;21.84;70.78;99115.63;5031963;28;20205;-77
2022/07/28 08:38:18;;;;;;;5.65;1.48;;;;;;;21.71;70.83;99108.91;5031467;28;20285;-78
2022/07/28 08:40:50;;;;;;;6.70;1.40;;;;;;;21.89;70.92;99106.00;5031459;28;20201;-78
2022/07/28 08:43:30;;;;;;;4.13;1.75;;;;;;;21.85;71.07;99103.81;5029152;28;20316;-78
2022/07/28 08:46:00;;;;;;;7.95;2.08;;;;;;;21.92;70.53;99100.28;5033688;28;20208;-77
2022/07/28 08:48:32;;;;;;;5.57;1.80;;;;;;;21.79;70.47;99101.81;5034996;28;20204;-78
2022/07/28 08:51:04;;;;;;;3.70;1.52;;;;;;;22.13;70.09;99096.22;5034545;28;20198;-77
2022/07/28 08:53:34;;;;;;;7.18;1.63;;;;;;;22.27;68.83;99103.56;5012802;28;20739;-78
2022/07/28 08:56:05;;;;;;;5.60;1.30;;;;;;;22.34;68.88;99107.25;5012943;28;20198;-79
2022/07/28 08:58:35;;;;;;;3.83;1.40;;;;;;;22.36;66.25;99107.06;5008736;28;20207;-77
2022/07/28 09:01:05;;;;;;;7.85;1.50;;;;;;;22.51;66.99;99106.19;5006551;28;20199;-81
2022/07/28 09:03:36;;;;;;;4.32;1.35;;;;;;;22.81;65.51;99109.06;5010700;28;20237;-78
2022/07/28 09:06:05;;;;;;;6.22;1.95;;;;;;;22.92;64.85;99105.97;5009191;28;20201;-78
2022/07/28 09:08:33;;;;;;;2.78;1.42;;;;;;;23.09;63.19;99107.56;5012850;28;20270;-77
2022/07/28 09:11:02;;;;;;;2.78;1.40;;;;;;;23.29;62.90;99107.09;5017264;28;20204;-78
2022/07/28 09:13:30;;;;;;;4.00;1.30;;;;;;;23.25;62.92;99111.16;5034487;28;20285;-77
2022/07/28 09:15:59;;;;;;;3.10;1.25;;;;;;;23.23;62.88;99097.81;5033211;28;20277;-77
2022/07/28 09:18:27;;;;;;;3.90;1.40;;;;;;;23.27;64.22;99103.72;5034372;28;20197;-78
2022/07/28 09:20:57;;;;;;;3.38;1.40;;;;;;;24.03;59.53;99100.00;5034239;28;20254;-78
2022/07/28 09:23:25;;;;;;;5.90;1.65;;;;;;;23.71;59.95;99101.16;5031221;28;20221;-78
2022/07/28 09:26:11;;;;;;;7.00;1.52;;;;;;;23.85;60.54;99094.94;5034169;28;20288;-77
2022/07/28 09:28:48;;;;;;;4.47;1.65;;;;;;;24.02;58.45;99100.16;5027698;28;20208;-78
2022/07/28 09:31:17;;;;;;;3.00;1.40;;;;;;;24.41;57.49;99098.03;5033078;28;20299;-78
2022/07/28 09:33:56;;;;;;;4.78;1.60;;;;;;;24.51;56.33;99089.63;5030545;28;20205;-78
2022/07/28 09:36:27;;;;;;;5.68;1.90;;;;;;;24.29;56.48;99091.41;5034233;28;20189;-78
2022/07/28 09:38:55;;;;;;;5.22;1.45;;;;;;;24.55;55.70;99096.34;5028800;28;20205;-78
2022/07/28 09:41:24;;;;;;;4.13;1.50;;;;;;;24.33;56.99;99090.03;5030015;28;20194;-78
2022/07/28 09:43:55;;;;;;;2.60;1.42;;;;;;;24.73;54.97;99091.38;5031236;28;20209;-78
2022/07/28 09:46:25;;;;;;;3.85;1.60;;;;;;;24.36;56.36;99091.53;5029072;28;20222;-78
2022/07/28 09:48:59;;;;;;;5.68;1.60;;;;;;;24.53;55.81;99090.31;5033958;28;20276;-78
2022/07/28 09:51:31;;;;;;;5.78;1.45;;;;;;;24.80;54.75;99075.19;5031068;28;20259;-78
2022/07/28 09:54:11;;;;;;;5.28;1.50;;;;;;;24.91;55.40;99079.28;5029451;28;20198;-78
2022/07/28 09:56:42;;;;;;;4.32;1.45;;;;;;;25.08;54.13;99081.56;5028347;28;20204;-79
2022/07/28 09:59:10;;;;;;;3.53;1.65;;;;;;;25.05;54.64;99076.53;5027000;28;20206;-78
2022/07/28 10:01:53;;;;;;;3.75;1.48;;;;;;;25.42;52.52;99081.88;5031440;28;20202;-78
2022/07/28 10:04:31;;;;;;;3.47;1.40;;;;;;;25.00;52.26;99070.84;5030208;28;20199;-78
2022/07/28 10:07:08;;;;;;;3.83;1.38;;;;;;;24.87;53.04;99070.69;5030897;28;20236;-78
2022/07/28 10:09:38;;;;;;;2.83;1.40;;;;;;;25.27;52.56;99071.09;5030652;28;20185;-78
2022/07/28 10:12:21;;;;;;;4.10;1.67;;;;;;;25.50;52.19;99065.47;5025060;28;20198;-78
2022/07/28 10:14:51;;;;;;;8.00;1.80;;;;;;;25.65;49.67;99066.19;5024491;28;20198;-79
2022/07/28 10:17:24;;;;;;;3.55;1.60;;;;;;;25.76;49.20;99060.25;5024611;28;20334;-78
2022/07/28 10:19:53;;;;;;;5.93;1.67;;;;;;;26.04;48.92;99060.22;5033532;28;20224;-78
2022/07/28 10:22:26;;;;;;;4.95;1.65;;;;;;;25.39;49.61;99056.00;5033580;28;20220;-78
2022/07/28 10:24:58;;;;;;;4.85;1.45;;;;;;;26.14;49.23;99052.56;5030651;28;20197;-79
2022/07/28 10:27:28;;;;;;;3.40;1.40;;;;;;;26.53;47.55;99049.22;5013348;28;20197;-78
2022/07/28 10:29:59;;;;;;;3.97;1.50;;;;;;;26.50;47.11;99041.47;5027325;28;20197;-79
2022/07/28 10:32:34;;;;;;;4.45;1.55;;;;;;;26.35;48.16;99046.22;5028706;28;20239;-78
2022/07/28 10:35:05;;;;;;;2.75;1.35;;;;;;;26.46;47.63;99029.34;5033228;28;20196;-78
2022/07/28 10:37:38;;;;;;;4.55;1.60;;;;;;;26.72;46.71;99023.13;5033199;28;20194;-78
2022/07/28 10:40:10;;;;;;;3.08;1.70;;;;;;;26.93;46.98;99024.88;5033160;28;20377;-78
2022/07/28 10:42:39;;;;;;;5.78;1.60;;;;;;;27.29;45.14;99021.78;5029681;28;20217;-79
2022/07/28 10:45:10;;;;;;;3.80;1.42;;;;;;;27.85;43.73;99026.78;5028854;28;20194;-78
2022/07/28 10:47:40;;;;;;;4.65;1.48;;;;;;;27.60;43.74;99028.47;5026331;28;20203;-79
2022/07/28 10:50:09;;;;;;;3.53;1.60;;;;;;;27.62;42.88;99029.94;5033231;28;20205;-78
2022/07/28 10:52:42;;;;;;;2.92;1.25;;;;;;;27.47;43.71;99028.47;5033118;28;20229;-79
2022/07/28 10:55:26;;;;;;;8.43;1.55;;;;;;;27.27;44.99;99017.59;5032894;28;20246;-78
2022/07/28 10:58:08;;;;;;;3.35;1.50;;;;;;;27.39;44.36;99016.75;5027279;28;20201;-79
2022/07/28 11:00:46;;;;;;;5.38;1.50;;;;;;;27.44;44.24;99023.47;5028927;28;20213;-78
2022/07/28 11:03:41;;;;;;;3.08;1.65;;;;;;;27.98;43.12;99014.19;5032652;28;20209;-78
2022/07/28 11:06:27;;;;;;;2.25;1.30;;;;;;;27.85;43.00;99013.19;5030034;28;20228;-78
2022/07/28 11:08:58;;;;;;;3.00;1.50;;;;;;;27.31;43.64;99017.00;5027381;28;20255;-78
2022/07/28 11:11:48;;;;;;;2.97;1.55;;;;;;;28.09;42.18;99016.28;5032876;28;20221;-78
2022/07/28 11:14:36;;;;;;;4.20;1.35;;;;;;;27.78;42.39;99012.34;5032012;28;20200;-79
2022/07/28 11:17:15;;;;;;;3.97;1.48;;;;;;;27.83;43.68;99000.84;5031434;28;20209;-78
2022/07/28 11:19:53;;;;;;;5.18;1.65;;;;;;;27.52;43.67;99007.78;5033747;28;20207;-78
2022/07/28 11:22:42;;;;;;;2.92;1.58;;;;;;;27.79;42.92;99010.47;5036739;28;20225;-78
2022/07/28 11:25:19;;;;;;;4.18;1.60;;;;;;;28.08;41.53;99003.66;5030154;28;20201;-78
2022/07/28 11:28:05;;;;;;;2.90;1.50;;;;;;;27.31;43.18;99002.53;5028547;28;20681;-78
2022/07/28 11:30:56;;;;;;;3.72;1.60;;;;;;;27.37;43.81;98999.81;5028592;28;20204;-78
2022/07/28 11:33:54;;;;;;;2.88;1.50;;;;;;;28.18;41.94;98995.88;5036659;28;20629;-78
2022/07/28 11:36:22;;;;;;;3.40;1.45;;;;;;;28.33;42.05;98998.38;5029009;28;20219;-78
2022/07/28 11:39:24;;;;;;;4.20;1.58;;;;;;;28.73;40.31;98991.66;5033125;28;20202;-78
2022/07/28 11:41:54;;;;;;;5.03;1.40;;;;;;;28.67;41.23;98989.00;5036420;28;20232;-77
2022/07/28 11:44:27;;;;;;;4.45;1.80;;;;;;;28.41;41.11;98985.34;5035141;28;20556;-78
2022/07/28 11:47:16;;;;;;;2.47;1.50;;;;;;;29.32;40.47;98975.91;5028769;28;20247;-78
2022/07/28 11:49:44;;;;;;;4.70;1.73;;;;;;;29.44;39.55;98973.31;5032970;28;20194;-78